sensor_id;sensor_type;location;lat;lon;timestamp;temperature;humidity
24085;DHT22;12268;52.110;5.548;2023-08-06T00:02:04;20.00;99.90
24085;DHT22;12268;52.110;5.548;2023-08-06T00:04:30;19.90;99.90
24085;DHT22;12268;52.110;5.548;2023-08-06T00:06:55;19.80;99.90
24085;DHT22;12268;52.110;5.548;2023-08-06T00:09:21;19.90;99.90
24085;DHT22;12268;52.110;5.548;2023-08-06T00:11:46;19.80;99.90
24085;DHT22;12268;52.110;5.548;2023-08-06T00:14:13;19.90;99.90
24085;DHT22;12268;52.110;5.548;2023-08-06T00:16:42;19.90;99.90
24085;DHT22;12268;52.110;5.548;2023-08-06T00:19:08;19.80;99.90
24085;DHT22;12268;52.110;5.548;2023-08-06T00:21:34;19.80;99.90
24085;DHT22;12268;52.110;5.548;2023-08-06T00:23:59;19.60;99.90
24085;DHT22;12268;52.110;5.548;2023-08-06T00:26:25;19.70;99.90
24085;DHT22;12268;52.110;5.548;2023-08-06T00:28:50;19.60;99.90
24085;DHT22;12268;52.110;5.548;2023-08-06T00:31:16;19.80;99.90
24085;DHT22;12268;52.110;5.548;2023-08-06T00:33:42;19.70;99.90
24085;DHT22;12268;52.110;5.548;2023-08-06T00:36:07;19.80;99.90
24085;DHT22;12268;52.110;5.548;2023-08-06T00:38:33;19.80;99.90
24085;DHT22;12268;52.110;5.548;2023-08-06T00:40:58;19.80;99.90
24085;DHT22;12268;52.110;5.548;2023-08-06T00:43:24;19.90;99.90
24085;DHT22;12268;52.110;5.548;2023-08-06T00:45:49;19.90;99.90
24085;DHT22;12268;52.110;5.548;2023-08-06T00:48:15;20.00;99.90
24085;DHT22;12268;52.110;5.548;2023-08-06T00:50:41;19.90;99.90
24085;DHT22;12268;52.110;5.548;2023-08-06T00:53:07;20.00;99.90
24085;DHT22;12268;52.110;5.548;2023-08-06T00:55:33;20.10;99.90
24085;DHT22;12268;52.110;5.548;2023-08-06T00:57:59;20.10;99.90
24085;DHT22;12268;52.110;5.548;2023-08-06T01:00:26;20.10;99.90
24085;DHT22;12268;52.110;5.548;2023-08-06T01:02:52;20.10;99.90
24085;DHT22;12268;52.110;5.548;2023-08-06T01:05:18;20.10;99.90
24085;DHT22;12268;52.110;5.548;2023-08-06T01:13:01;20.30;99.90
24085;DHT22;12268;52.110;5.548;2023-08-06T01:15:35;20.20;99.90
24085;DHT22;12268;52.110;5.548;2023-08-06T01:18:03;20.20;99.90
24085;DHT22;12268;52.110;5.548;2023-08-06T01:20:31;20.10;99.90
24085;DHT22;12268;52.110;5.548;2023-08-06T01:22:56;20.00;99.90
24085;DHT22;12268;52.110;5.548;2023-08-06T01:25:32;20.00;99.90
24085;DHT22;12268;52.110;5.548;2023-08-06T01:28:05;20.00;99.90
24085;DHT22;12268;52.110;5.548;2023-08-06T01:30:33;19.80;99.90
24085;DHT22;12268;52.110;5.548;2023-08-06T01:33:04;19.70;99.90
24085;DHT22;12268;52.110;5.548;2023-08-06T01:35:32;19.60;99.90
24085;DHT22;12268;52.110;5.548;2023-08-06T01:38:00;19.60;99.90
24085;DHT22;12268;52.110;5.548;2023-08-06T01:40:26;19.70;99.90
24085;DHT22;12268;52.110;5.548;2023-08-06T01:42:53;19.60;99.90
24085;DHT22;12268;52.110;5.548;2023-08-06T01:45:19;19.40;99.90
24085;DHT22;12268;52.110;5.548;2023-08-06T01:47:44;19.60;99.90
24085;DHT22;12268;52.110;5.548;2023-08-06T01:50:10;19.60;99.90
24085;DHT22;12268;52.110;5.548;2023-08-06T01:52:35;19.60;99.90
24085;DHT22;12268;52.110;5.548;2023-08-06T01:55:01;19.70;99.90
24085;DHT22;12268;52.110;5.548;2023-08-06T01:57:26;19.80;99.90
24085;DHT22;12268;52.110;5.548;2023-08-06T01:59:52;19.60;99.90
24085;DHT22;12268;52.110;5.548;2023-08-06T02:02:17;19.60;99.90
24085;DHT22;12268;52.110;5.548;2023-08-06T02:04:43;19.70;99.90
24085;DHT22;12268;52.110;5.548;2023-08-06T02:07:09;19.60;99.90
24085;DHT22;12268;52.110;5.548;2023-08-06T02:09:34;19.50;99.90
24085;DHT22;12268;52.110;5.548;2023-08-06T02:12:00;19.50;99.90
24085;DHT22;12268;52.110;5.548;2023-08-06T02:14:26;19.60;99.90
24085;DHT22;12268;52.110;5.548;2023-08-06T02:16:51;19.60;99.90
24085;DHT22;12268;52.110;5.548;2023-08-06T02:19:17;19.50;99.90
24085;DHT22;12268;52.110;5.548;2023-08-06T02:21:42;19.40;99.90
24085;DHT22;12268;52.110;5.548;2023-08-06T02:24:08;19.50;99.90
24085;DHT22;12268;52.110;5.548;2023-08-06T02:26:33;19.40;99.90
24085;DHT22;12268;52.110;5.548;2023-08-06T02:28:59;19.50;99.90
24085;DHT22;12268;52.110;5.548;2023-08-06T02:31:25;19.40;99.90
24085;DHT22;12268;52.110;5.548;2023-08-06T02:33:50;19.40;99.90
24085;DHT22;12268;52.110;5.548;2023-08-06T02:36:16;19.50;99.90
24085;DHT22;12268;52.110;5.548;2023-08-06T02:38:41;19.50;99.90
24085;DHT22;12268;52.110;5.548;2023-08-06T02:41:07;19.60;99.90
24085;DHT22;12268;52.110;5.548;2023-08-06T02:43:32;19.70;99.90
24085;DHT22;12268;52.110;5.548;2023-08-06T02:46:01;19.70;99.90
24085;DHT22;12268;52.110;5.548;2023-08-06T02:48:27;19.80;99.90
24085;DHT22;12268;52.110;5.548;2023-08-06T02:50:52;19.90;99.90
24085;DHT22;12268;52.110;5.548;2023-08-06T02:53:18;19.90;99.90
24085;DHT22;12268;52.110;5.548;2023-08-06T02:55:47;19.90;99.90
24085;DHT22;12268;52.110;5.548;2023-08-06T02:58:16;19.80;99.90
24085;DHT22;12268;52.110;5.548;2023-08-06T03:00:45;19.80;99.90
24085;DHT22;12268;52.110;5.548;2023-08-06T03:03:11;19.80;99.90
24085;DHT22;12268;52.110;5.548;2023-08-06T03:05:36;19.80;99.90
24085;DHT22;12268;52.110;5.548;2023-08-06T03:08:02;19.70;99.90
24085;DHT22;12268;52.110;5.548;2023-08-06T03:10:28;19.80;99.90
24085;DHT22;12268;52.110;5.548;2023-08-06T03:12:53;19.90;99.90
24085;DHT22;12268;52.110;5.548;2023-08-06T03:15:19;19.90;99.90
24085;DHT22;12268;52.110;5.548;2023-08-06T03:17:44;20.00;99.90
24085;DHT22;12268;52.110;5.548;2023-08-06T03:20:10;20.00;99.90
24085;DHT22;12268;52.110;5.548;2023-08-06T03:22:35;19.90;99.90
24085;DHT22;12268;52.110;5.548;2023-08-06T03:25:01;20.00;99.90
24085;DHT22;12268;52.110;5.548;2023-08-06T03:27:27;20.10;99.90
24085;DHT22;12268;52.110;5.548;2023-08-06T03:29:52;20.10;99.90
24085;DHT22;12268;52.110;5.548;2023-08-06T03:32:18;20.10;99.90
24085;DHT22;12268;52.110;5.548;2023-08-06T03:34:44;20.10;99.90
24085;DHT22;12268;52.110;5.548;2023-08-06T03:37:09;20.10;99.90
24085;DHT22;12268;52.110;5.548;2023-08-06T03:39:35;20.10;99.90
24085;DHT22;12268;52.110;5.548;2023-08-06T03:42:00;20.10;99.90
24085;DHT22;12268;52.110;5.548;2023-08-06T03:44:26;20.20;99.90
24085;DHT22;12268;52.110;5.548;2023-08-06T03:46:53;20.20;99.90
24085;DHT22;12268;52.110;5.548;2023-08-06T03:49:19;20.20;99.90
24085;DHT22;12268;52.110;5.548;2023-08-06T03:51:44;20.20;99.90
24085;DHT22;12268;52.110;5.548;2023-08-06T03:54:10;20.30;99.90
24085;DHT22;12268;52.110;5.548;2023-08-06T03:56:35;20.30;99.90
24085;DHT22;12268;52.110;5.548;2023-08-06T03:59:01;20.30;99.90
24085;DHT22;12268;52.110;5.548;2023-08-06T04:01:26;20.40;99.90
24085;DHT22;12268;52.110;5.548;2023-08-06T04:03:52;20.40;99.90
24085;DHT22;12268;52.110;5.548;2023-08-06T04:06:18;20.50;99.90
24085;DHT22;12268;52.110;5.548;2023-08-06T04:08:43;20.40;99.90
24085;DHT22;12268;52.110;5.548;2023-08-06T04:11:09;20.40;99.90
24085;DHT22;12268;52.110;5.548;2023-08-06T04:13:34;20.40;99.90
24085;DHT22;12268;52.110;5.548;2023-08-06T04:16:03;20.40;99.90
24085;DHT22;12268;52.110;5.548;2023-08-06T04:18:29;20.40;99.90
24085;DHT22;12268;52.110;5.548;2023-08-06T04:20:54;20.40;99.90
24085;DHT22;12268;52.110;5.548;2023-08-06T04:23:22;20.50;99.90
24085;DHT22;12268;52.110;5.548;2023-08-06T04:25:48;20.40;99.90
24085;DHT22;12268;52.110;5.548;2023-08-06T04:28:13;20.40;99.90
24085;DHT22;12268;52.110;5.548;2023-08-06T04:30:39;20.40;99.90
24085;DHT22;12268;52.110;5.548;2023-08-06T04:33:04;20.50;99.90
24085;DHT22;12268;52.110;5.548;2023-08-06T04:35:30;20.60;99.90
24085;DHT22;12268;52.110;5.548;2023-08-06T04:37:55;20.50;99.90
24085;DHT22;12268;52.110;5.548;2023-08-06T04:40:21;20.60;99.90
24085;DHT22;12268;52.110;5.548;2023-08-06T04:42:47;20.60;99.90
24085;DHT22;12268;52.110;5.548;2023-08-06T04:45:12;20.70;99.90
24085;DHT22;12268;52.110;5.548;2023-08-06T04:47:38;20.70;99.90
24085;DHT22;12268;52.110;5.548;2023-08-06T04:50:03;20.70;99.90
24085;DHT22;12268;52.110;5.548;2023-08-06T04:52:29;20.70;99.90
24085;DHT22;12268;52.110;5.548;2023-08-06T04:54:57;20.70;99.90
24085;DHT22;12268;52.110;5.548;2023-08-06T04:57:23;20.80;99.90
24085;DHT22;12268;52.110;5.548;2023-08-06T04:59:48;20.70;99.90
24085;DHT22;12268;52.110;5.548;2023-08-06T05:02:14;20.80;99.90
24085;DHT22;12268;52.110;5.548;2023-08-06T05:04:39;20.80;99.90
24085;DHT22;12268;52.110;5.548;2023-08-06T05:07:08;20.80;99.90
24085;DHT22;12268;52.110;5.548;2023-08-06T05:09:33;20.90;99.90
24085;DHT22;12268;52.110;5.548;2023-08-06T05:12:04;20.90;99.90
24085;DHT22;12268;52.110;5.548;2023-08-06T05:14:29;20.90;99.90
24085;DHT22;12268;52.110;5.548;2023-08-06T05:16:55;20.90;99.90
24085;DHT22;12268;52.110;5.548;2023-08-06T05:19:20;20.90;99.90
24085;DHT22;12268;52.110;5.548;2023-08-06T05:21:46;21.00;99.90
24085;DHT22;12268;52.110;5.548;2023-08-06T05:24:11;20.90;99.90
24085;DHT22;12268;52.110;5.548;2023-08-06T05:26:37;20.90;99.90
24085;DHT22;12268;52.110;5.548;2023-08-06T05:29:03;20.90;99.90
24085;DHT22;12268;52.110;5.548;2023-08-06T05:31:28;20.90;99.90
24085;DHT22;12268;52.110;5.548;2023-08-06T05:33:54;21.00;99.90
24085;DHT22;12268;52.110;5.548;2023-08-06T05:36:20;21.00;99.90
24085;DHT22;12268;52.110;5.548;2023-08-06T05:38:46;21.00;99.90
24085;DHT22;12268;52.110;5.548;2023-08-06T05:41:12;21.10;99.90
24085;DHT22;12268;52.110;5.548;2023-08-06T05:43:37;21.00;99.90
24085;DHT22;12268;52.110;5.548;2023-08-06T05:46:03;21.10;99.90
24085;DHT22;12268;52.110;5.548;2023-08-06T05:48:29;21.20;99.90
24085;DHT22;12268;52.110;5.548;2023-08-06T05:50:55;21.10;99.90
24085;DHT22;12268;52.110;5.548;2023-08-06T05:53:20;21.20;99.90
24085;DHT22;12268;52.110;5.548;2023-08-06T05:55:46;21.20;99.90
24085;DHT22;12268;52.110;5.548;2023-08-06T05:58:12;21.20;99.90
24085;DHT22;12268;52.110;5.548;2023-08-06T06:00:38;21.30;99.90
24085;DHT22;12268;52.110;5.548;2023-08-06T06:03:03;21.40;99.90
24085;DHT22;12268;52.110;5.548;2023-08-06T06:05:29;21.30;99.90
24085;DHT22;12268;52.110;5.548;2023-08-06T06:07:54;21.30;99.90
24085;DHT22;12268;52.110;5.548;2023-08-06T06:10:20;21.30;99.90
24085;DHT22;12268;52.110;5.548;2023-08-06T06:12:45;21.30;99.90
24085;DHT22;12268;52.110;5.548;2023-08-06T06:15:11;21.20;99.90
24085;DHT22;12268;52.110;5.548;2023-08-06T06:17:36;21.30;99.90
24085;DHT22;12268;52.110;5.548;2023-08-06T06:20:02;21.30;99.90
24085;DHT22;12268;52.110;5.548;2023-08-06T06:22:29;21.30;99.90
24085;DHT22;12268;52.110;5.548;2023-08-06T06:24:55;21.30;99.90
24085;DHT22;12268;52.110;5.548;2023-08-06T06:27:20;21.30;99.90
24085;DHT22;12268;52.110;5.548;2023-08-06T06:29:46;21.40;99.90
24085;DHT22;12268;52.110;5.548;2023-08-06T06:32:11;21.40;99.90
24085;DHT22;12268;52.110;5.548;2023-08-06T06:34:37;21.40;99.90
24085;DHT22;12268;52.110;5.548;2023-08-06T06:37:03;21.40;99.90
24085;DHT22;12268;52.110;5.548;2023-08-06T06:39:28;21.50;99.90
24085;DHT22;12268;52.110;5.548;2023-08-06T06:41:54;21.30;99.90
24085;DHT22;12268;52.110;5.548;2023-08-06T06:44:19;21.30;99.90
24085;DHT22;12268;52.110;5.548;2023-08-06T06:46:46;21.30;99.90
24085;DHT22;12268;52.110;5.548;2023-08-06T06:49:11;21.30;99.90
24085;DHT22;12268;52.110;5.548;2023-08-06T06:51:37;21.30;99.90
24085;DHT22;12268;52.110;5.548;2023-08-06T06:54:02;21.30;99.90
24085;DHT22;12268;52.110;5.548;2023-08-06T06:56:28;21.40;99.90
24085;DHT22;12268;52.110;5.548;2023-08-06T06:58:54;21.40;99.90
24085;DHT22;12268;52.110;5.548;2023-08-06T07:01:19;21.40;99.90
24085;DHT22;12268;52.110;5.548;2023-08-06T07:03:45;21.40;99.90
24085;DHT22;12268;52.110;5.548;2023-08-06T07:06:10;21.40;99.90
24085;DHT22;12268;52.110;5.548;2023-08-06T07:08:37;21.40;99.90
24085;DHT22;12268;52.110;5.548;2023-08-06T07:11:04;21.50;99.90
24085;DHT22;12268;52.110;5.548;2023-08-06T07:13:31;21.50;99.90
24085;DHT22;12268;52.110;5.548;2023-08-06T07:15:56;21.50;99.90
24085;DHT22;12268;52.110;5.548;2023-08-06T07:18:23;21.60;99.90
24085;DHT22;12268;52.110;5.548;2023-08-06T07:20:49;21.70;99.90
24085;DHT22;12268;52.110;5.548;2023-08-06T07:23:15;21.70;99.90
24085;DHT22;12268;52.110;5.548;2023-08-06T07:25:41;21.80;99.90
24085;DHT22;12268;52.110;5.548;2023-08-06T07:28:06;21.80;99.90
24085;DHT22;12268;52.110;5.548;2023-08-06T07:30:32;22.00;99.90
24085;DHT22;12268;52.110;5.548;2023-08-06T07:32:57;22.00;99.90
24085;DHT22;12268;52.110;5.548;2023-08-06T07:35:23;21.80;99.90
24085;DHT22;12268;52.110;5.548;2023-08-06T07:37:48;21.80;99.90
24085;DHT22;12268;52.110;5.548;2023-08-06T07:40:14;22.00;99.90
24085;DHT22;12268;52.110;5.548;2023-08-06T07:42:40;22.00;99.90
24085;DHT22;12268;52.110;5.548;2023-08-06T07:45:06;22.10;99.90
24085;DHT22;12268;52.110;5.548;2023-08-06T07:47:32;22.00;99.90
24085;DHT22;12268;52.110;5.548;2023-08-06T07:49:57;22.10;99.90
24085;DHT22;12268;52.110;5.548;2023-08-06T07:52:23;22.10;99.90
24085;DHT22;12268;52.110;5.548;2023-08-06T07:54:48;22.10;99.90
24085;DHT22;12268;52.110;5.548;2023-08-06T07:57:14;22.20;99.90
24085;DHT22;12268;52.110;5.548;2023-08-06T07:59:40;22.20;99.90
24085;DHT22;12268;52.110;5.548;2023-08-06T08:02:06;22.20;99.90
24085;DHT22;12268;52.110;5.548;2023-08-06T08:04:31;22.20;99.90
24085;DHT22;12268;52.110;5.548;2023-08-06T08:06:57;22.20;99.90
24085;DHT22;12268;52.110;5.548;2023-08-06T08:09:23;22.20;99.90
24085;DHT22;12268;52.110;5.548;2023-08-06T08:11:48;22.20;99.90
24085;DHT22;12268;52.110;5.548;2023-08-06T08:14:14;22.10;99.90
24085;DHT22;12268;52.110;5.548;2023-08-06T08:16:39;22.20;99.90
24085;DHT22;12268;52.110;5.548;2023-08-06T08:19:05;22.20;99.90
24085;DHT22;12268;52.110;5.548;2023-08-06T08:21:31;22.20;99.90
24085;DHT22;12268;52.110;5.548;2023-08-06T08:23:59;22.20;99.90
24085;DHT22;12268;52.110;5.548;2023-08-06T08:26:25;22.20;99.90
24085;DHT22;12268;52.110;5.548;2023-08-06T08:28:53;22.20;99.90
24085;DHT22;12268;52.110;5.548;2023-08-06T08:31:18;22.30;99.90
24085;DHT22;12268;52.110;5.548;2023-08-06T08:33:44;22.30;99.90
24085;DHT22;12268;52.110;5.548;2023-08-06T08:36:09;22.20;99.90
24085;DHT22;12268;52.110;5.548;2023-08-06T08:38:35;22.20;99.90
24085;DHT22;12268;52.110;5.548;2023-08-06T08:41:01;22.20;99.90
24085;DHT22;12268;52.110;5.548;2023-08-06T08:43:27;22.40;99.90
24085;DHT22;12268;52.110;5.548;2023-08-06T08:45:53;22.60;99.90
24085;DHT22;12268;52.110;5.548;2023-08-06T08:48:24;22.80;99.90
24085;DHT22;12268;52.110;5.548;2023-08-06T10:00:44;18.40;99.90
24085;DHT22;12268;52.110;5.548;2023-08-06T10:03:10;18.50;99.90
24085;DHT22;12268;52.110;5.548;2023-08-06T10:05:39;18.50;99.90
24085;DHT22;12268;52.110;5.548;2023-08-06T10:08:06;18.60;99.90
24085;DHT22;12268;52.110;5.548;2023-08-06T10:10:32;18.80;99.90
24085;DHT22;12268;52.110;5.548;2023-08-06T10:12:59;18.70;99.90
24085;DHT22;12268;52.110;5.548;2023-08-06T10:15:27;18.60;99.90
24085;DHT22;12268;52.110;5.548;2023-08-06T10:17:56;18.30;99.90
24085;DHT22;12268;52.110;5.548;2023-08-06T10:20:23;17.80;99.90
24085;DHT22;12268;52.110;5.548;2023-08-06T10:23:02;17.60;99.90
24085;DHT22;12268;52.110;5.548;2023-08-06T10:25:33;17.70;99.90
24085;DHT22;12268;52.110;5.548;2023-08-06T10:27:59;17.60;99.90
24085;DHT22;12268;52.110;5.548;2023-08-06T10:30:32;18.00;99.90
24085;DHT22;12268;52.110;5.548;2023-08-06T10:33:00;18.20;99.90
24085;DHT22;12268;52.110;5.548;2023-08-06T10:35:42;18.20;99.90
24085;DHT22;12268;52.110;5.548;2023-08-06T10:38:21;18.30;99.90
24085;DHT22;12268;52.110;5.548;2023-08-06T10:41:01;18.30;99.90
24085;DHT22;12268;52.110;5.548;2023-08-06T10:45:52;18.40;99.90
24085;DHT22;12268;52.110;5.548;2023-08-06T10:48:40;18.60;99.90
24085;DHT22;12268;52.110;5.548;2023-08-06T10:51:10;18.70;99.90
24085;DHT22;12268;52.110;5.548;2023-08-06T10:53:37;18.50;99.90
24085;DHT22;12268;52.110;5.548;2023-08-06T10:56:15;18.30;99.90
24085;DHT22;12268;52.110;5.548;2023-08-06T10:58:41;18.30;99.90
24085;DHT22;12268;52.110;5.548;2023-08-06T11:01:07;18.30;99.90
24085;DHT22;12268;52.110;5.548;2023-08-06T11:03:33;18.40;99.90
24085;DHT22;12268;52.110;5.548;2023-08-06T11:05:59;18.20;99.90
24085;DHT22;12268;52.110;5.548;2023-08-06T11:08:26;18.00;99.90
24085;DHT22;12268;52.110;5.548;2023-08-06T11:10:52;18.10;99.90
24085;DHT22;12268;52.110;5.548;2023-08-06T11:13:17;18.40;99.90
24085;DHT22;12268;52.110;5.548;2023-08-06T11:15:44;18.50;99.90
24085;DHT22;12268;52.110;5.548;2023-08-06T11:18:10;18.50;99.90
24085;DHT22;12268;52.110;5.548;2023-08-06T11:20:36;18.60;99.90
24085;DHT22;12268;52.110;5.548;2023-08-06T11:23:02;18.70;99.90
24085;DHT22;12268;52.110;5.548;2023-08-06T11:25:28;18.40;99.90
24085;DHT22;12268;52.110;5.548;2023-08-06T11:27:54;18.50;99.90
24085;DHT22;12268;52.110;5.548;2023-08-06T11:30:21;18.30;99.90
24085;DHT22;12268;52.110;5.548;2023-08-06T11:32:49;18.40;99.90
24085;DHT22;12268;52.110;5.548;2023-08-06T11:35:15;18.40;99.90
24085;DHT22;12268;52.110;5.548;2023-08-06T11:37:45;18.30;99.90
24085;DHT22;12268;52.110;5.548;2023-08-06T11:40:11;18.40;99.90
24085;DHT22;12268;52.110;5.548;2023-08-06T11:42:37;18.50;99.90
24085;DHT22;12268;52.110;5.548;2023-08-06T11:45:03;18.50;99.90
24085;DHT22;12268;52.110;5.548;2023-08-06T11:47:30;18.70;99.90
24085;DHT22;12268;52.110;5.548;2023-08-06T11:49:55;18.70;99.90
24085;DHT22;12268;52.110;5.548;2023-08-06T11:52:25;18.70;99.90
24085;DHT22;12268;52.110;5.548;2023-08-06T11:55:02;18.70;99.90
24085;DHT22;12268;52.110;5.548;2023-08-06T11:57:36;18.80;99.90
24085;DHT22;12268;52.110;5.548;2023-08-06T12:00:06;18.80;99.90
24085;DHT22;12268;52.110;5.548;2023-08-06T12:02:32;18.50;99.90
24085;DHT22;12268;52.110;5.548;2023-08-06T12:05:03;18.60;99.90
24085;DHT22;12268;52.110;5.548;2023-08-06T12:07:35;18.80;99.90
24085;DHT22;12268;52.110;5.548;2023-08-06T12:10:01;19.00;99.90
24085;DHT22;12268;52.110;5.548;2023-08-06T12:12:27;18.90;99.90
24085;DHT22;12268;52.110;5.548;2023-08-06T12:14:53;18.90;99.90
24085;DHT22;12268;52.110;5.548;2023-08-06T12:17:19;19.00;99.90
24085;DHT22;12268;52.110;5.548;2023-08-06T12:19:45;18.70;99.90
24085;DHT22;12268;52.110;5.548;2023-08-06T12:22:11;18.70;99.90
24085;DHT22;12268;52.110;5.548;2023-08-06T12:24:36;18.70;99.90
24085;DHT22;12268;52.110;5.548;2023-08-06T12:27:02;18.60;99.90
24085;DHT22;12268;52.110;5.548;2023-08-06T12:29:28;18.60;99.90
24085;DHT22;12268;52.110;5.548;2023-08-06T12:31:54;18.50;99.90
24085;DHT22;12268;52.110;5.548;2023-08-06T12:34:19;18.50;99.90
24085;DHT22;12268;52.110;5.548;2023-08-06T12:36:45;18.50;99.90
24085;DHT22;12268;52.110;5.548;2023-08-06T12:39:10;18.50;99.90
24085;DHT22;12268;52.110;5.548;2023-08-06T12:41:36;18.50;99.90
24085;DHT22;12268;52.110;5.548;2023-08-06T12:44:01;18.40;99.90
24085;DHT22;12268;52.110;5.548;2023-08-06T12:46:27;18.20;99.90
24085;DHT22;12268;52.110;5.548;2023-08-06T12:48:52;18.30;99.90
24085;DHT22;12268;52.110;5.548;2023-08-06T12:51:18;18.40;99.90
24085;DHT22;12268;52.110;5.548;2023-08-06T12:53:43;18.60;99.90
24085;DHT22;12268;52.110;5.548;2023-08-06T12:56:09;18.60;99.90
24085;DHT22;12268;52.110;5.548;2023-08-06T12:58:34;18.60;99.90
24085;DHT22;12268;52.110;5.548;2023-08-06T13:01:00;18.60;99.90
24085;DHT22;12268;52.110;5.548;2023-08-06T13:03:25;18.80;99.90
24085;DHT22;12268;52.110;5.548;2023-08-06T13:05:51;18.90;99.90
24085;DHT22;12268;52.110;5.548;2023-08-06T13:08:17;18.90;99.90
24085;DHT22;12268;52.110;5.548;2023-08-06T13:10:43;19.00;99.90
24085;DHT22;12268;52.110;5.548;2023-08-06T13:13:08;19.20;99.90
24085;DHT22;12268;52.110;5.548;2023-08-06T13:15:35;19.20;99.90
24085;DHT22;12268;52.110;5.548;2023-08-06T13:18:01;19.20;99.90
24085;DHT22;12268;52.110;5.548;2023-08-06T13:20:29;19.20;99.90
24085;DHT22;12268;52.110;5.548;2023-08-06T13:22:55;19.20;99.90
24085;DHT22;12268;52.110;5.548;2023-08-06T13:25:20;19.20;99.90
24085;DHT22;12268;52.110;5.548;2023-08-06T13:27:46;19.10;99.90
24085;DHT22;12268;52.110;5.548;2023-08-06T13:30:12;19.10;99.90
24085;DHT22;12268;52.110;5.548;2023-08-06T13:32:38;19.40;99.90
24085;DHT22;12268;52.110;5.548;2023-08-06T13:35:04;19.60;99.90
24085;DHT22;12268;52.110;5.548;2023-08-06T13:37:30;19.60;99.90
24085;DHT22;12268;52.110;5.548;2023-08-06T13:39:55;19.80;99.90
24085;DHT22;12268;52.110;5.548;2023-08-06T13:42:22;19.80;99.90
24085;DHT22;12268;52.110;5.548;2023-08-06T13:44:47;19.80;99.90
24085;DHT22;12268;52.110;5.548;2023-08-06T13:47:13;20.00;99.90
24085;DHT22;12268;52.110;5.548;2023-08-06T13:49:38;20.00;99.90
24085;DHT22;12268;52.110;5.548;2023-08-06T13:52:04;20.20;99.90
24085;DHT22;12268;52.110;5.548;2023-08-06T13:54:30;20.20;99.90
24085;DHT22;12268;52.110;5.548;2023-08-06T13:56:55;20.20;99.90
24085;DHT22;12268;52.110;5.548;2023-08-06T13:59:21;20.30;99.90
24085;DHT22;12268;52.110;5.548;2023-08-06T14:01:49;20.30;99.90
24085;DHT22;12268;52.110;5.548;2023-08-06T14:04:14;20.30;99.90
24085;DHT22;12268;52.110;5.548;2023-08-06T14:06:40;20.00;99.90
24085;DHT22;12268;52.110;5.548;2023-08-06T14:09:05;20.10;99.90
24085;DHT22;12268;52.110;5.548;2023-08-06T14:11:31;20.00;99.90
24085;DHT22;12268;52.110;5.548;2023-08-06T14:13:56;19.90;99.90
24085;DHT22;12268;52.110;5.548;2023-08-06T14:16:22;19.90;99.90
24085;DHT22;12268;52.110;5.548;2023-08-06T14:18:48;20.20;99.90
24085;DHT22;12268;52.110;5.548;2023-08-06T14:21:13;20.20;99.90
24085;DHT22;12268;52.110;5.548;2023-08-06T14:23:39;20.30;99.90
24085;DHT22;12268;52.110;5.548;2023-08-06T14:26:07;20.30;99.90
24085;DHT22;12268;52.110;5.548;2023-08-06T14:28:32;20.30;99.90
24085;DHT22;12268;52.110;5.548;2023-08-06T14:30:58;20.50;99.90
24085;DHT22;12268;52.110;5.548;2023-08-06T14:33:24;20.70;99.90
24085;DHT22;12268;52.110;5.548;2023-08-06T14:35:49;20.70;99.90
24085;DHT22;12268;52.110;5.548;2023-08-06T14:38:15;20.60;99.90
24085;DHT22;12268;52.110;5.548;2023-08-06T14:40:40;20.40;99.90
24085;DHT22;12268;52.110;5.548;2023-08-06T14:43:06;20.40;99.90
24085;DHT22;12268;52.110;5.548;2023-08-06T14:45:32;20.70;99.90
24085;DHT22;12268;52.110;5.548;2023-08-06T14:47:57;20.90;99.90
24085;DHT22;12268;52.110;5.548;2023-08-06T14:50:23;20.90;99.90
24085;DHT22;12268;52.110;5.548;2023-08-06T14:52:49;20.80;99.90
24085;DHT22;12268;52.110;5.548;2023-08-06T14:55:22;20.80;99.90
24085;DHT22;12268;52.110;5.548;2023-08-06T14:57:48;20.70;99.90
24085;DHT22;12268;52.110;5.548;2023-08-06T15:00:13;20.60;99.90
24085;DHT22;12268;52.110;5.548;2023-08-06T15:02:39;20.60;99.90
24085;DHT22;12268;52.110;5.548;2023-08-06T15:05:05;20.50;99.90
24085;DHT22;12268;52.110;5.548;2023-08-06T15:07:30;20.40;99.90
24085;DHT22;12268;52.110;5.548;2023-08-06T15:09:58;20.30;99.90
24085;DHT22;12268;52.110;5.548;2023-08-06T15:12:24;20.40;99.90
24085;DHT22;12268;52.110;5.548;2023-08-06T15:14:49;20.60;99.90
24085;DHT22;12268;52.110;5.548;2023-08-06T15:17:15;20.50;99.90
24085;DHT22;12268;52.110;5.548;2023-08-06T15:19:40;20.50;99.90
24085;DHT22;12268;52.110;5.548;2023-08-06T15:22:06;20.30;99.90
24085;DHT22;12268;52.110;5.548;2023-08-06T15:24:31;20.50;99.90
24085;DHT22;12268;52.110;5.548;2023-08-06T15:26:57;20.20;99.90
24085;DHT22;12268;52.110;5.548;2023-08-06T15:29:22;19.90;99.90
24085;DHT22;12268;52.110;5.548;2023-08-06T15:31:48;19.80;99.90
24085;DHT22;12268;52.110;5.548;2023-08-06T15:34:14;19.90;99.90
24085;DHT22;12268;52.110;5.548;2023-08-06T15:36:40;19.80;99.90
24085;DHT22;12268;52.110;5.548;2023-08-06T15:39:05;19.70;99.90
24085;DHT22;12268;52.110;5.548;2023-08-06T15:41:31;19.60;99.90
24085;DHT22;12268;52.110;5.548;2023-08-06T15:43:57;19.30;99.90
24085;DHT22;12268;52.110;5.548;2023-08-06T15:46:22;19.30;99.90
24085;DHT22;12268;52.110;5.548;2023-08-06T15:48:48;19.50;99.90
24085;DHT22;12268;52.110;5.548;2023-08-06T15:51:13;19.40;99.90
24085;DHT22;12268;52.110;5.548;2023-08-06T15:53:39;19.40;99.90
24085;DHT22;12268;52.110;5.548;2023-08-06T15:56:04;19.20;99.90
24085;DHT22;12268;52.110;5.548;2023-08-06T15:58:30;19.00;99.90
24085;DHT22;12268;52.110;5.548;2023-08-06T16:00:57;18.80;99.90
24085;DHT22;12268;52.110;5.548;2023-08-06T16:03:23;18.70;99.90
24085;DHT22;12268;52.110;5.548;2023-08-06T16:05:48;18.70;99.90
24085;DHT22;12268;52.110;5.548;2023-08-06T16:08:14;18.90;99.90
24085;DHT22;12268;52.110;5.548;2023-08-06T16:10:40;19.00;99.90
24085;DHT22;12268;52.110;5.548;2023-08-06T16:13:09;19.00;99.90
24085;DHT22;12268;52.110;5.548;2023-08-06T16:15:35;18.70;99.90
24085;DHT22;12268;52.110;5.548;2023-08-06T16:18:00;18.70;99.90
24085;DHT22;12268;52.110;5.548;2023-08-06T16:20:26;18.80;99.90
24085;DHT22;12268;52.110;5.548;2023-08-06T16:22:51;18.80;99.90
24085;DHT22;12268;52.110;5.548;2023-08-06T20:36:27;16.60;99.90
24085;DHT22;12268;52.110;5.548;2023-08-06T20:38:53;16.60;99.90
24085;DHT22;12268;52.110;5.548;2023-08-06T20:41:18;16.60;99.90
24085;DHT22;12268;52.110;5.548;2023-08-06T20:43:44;16.50;99.90
24085;DHT22;12268;52.110;5.548;2023-08-06T20:46:09;16.40;99.90
24085;DHT22;12268;52.110;5.548;2023-08-06T20:48:35;16.40;99.90
24085;DHT22;12268;52.110;5.548;2023-08-06T20:51:00;16.50;99.90
24085;DHT22;12268;52.110;5.548;2023-08-06T20:53:26;16.60;99.90